createdAt,value
2022-11-05T13:56:26.832Z,12.76
2022-11-05T13:59:03.712Z,12.79
2022-11-05T14:01:42.581Z,12.81
2022-11-05T14:04:14.780Z,12.76
2022-11-05T14:06:41.831Z,12.71
2022-11-05T14:09:10.319Z,12.68
2022-11-05T14:11:40.642Z,12.73
2022-11-05T14:14:08.871Z,12.72
2022-11-05T14:16:48.132Z,12.79
2022-11-05T14:19:29.662Z,12.92
2022-11-05T14:21:56.953Z,13.06
2022-11-05T14:24:41.701Z,13.11
2022-11-05T14:27:48.192Z,13.81
2022-11-05T14:30:41.648Z,15.75
2022-11-05T14:33:17.250Z,14.33
2022-11-05T14:35:46.610Z,13.50
2022-11-05T14:38:22.491Z,13.27
2022-11-05T14:40:49.773Z,12.85
2022-11-05T14:43:20.773Z,12.93
2022-11-05T14:45:57.074Z,12.93
2022-11-05T14:48:30.190Z,12.98
2022-11-05T14:50:57.674Z,13.08
2022-11-05T14:53:26.849Z,13.35
2022-11-05T14:55:58.694Z,14.62
2022-11-05T14:58:33.285Z,13.74
2022-11-05T15:01:02.079Z,13.60
2022-11-05T15:03:59.755Z,13.41
2022-11-05T15:06:28.809Z,13.20
2022-11-05T15:09:18.628Z,12.88
2022-11-05T15:11:58.807Z,12.75
2022-11-05T15:14:28.067Z,12.62
2022-11-05T15:17:09.238Z,12.55
2022-11-05T15:19:36.343Z,12.61
2022-11-05T15:22:05.731Z,12.48
2022-11-05T15:24:33.533Z,12.46
2022-11-05T15:27:04.448Z,12.57
2022-11-05T15:29:31.629Z,12.60
2022-11-05T15:32:00.151Z,12.96
2022-11-05T15:34:28.607Z,13.04
2022-11-05T15:36:57.034Z,12.56
2022-11-05T15:39:30.138Z,13.92
2022-11-05T15:41:57.922Z,13.18
2022-11-05T15:44:26.849Z,12.46
2022-11-05T15:47:15.291Z,12.46
2022-11-05T15:49:43.031Z,12.07
2022-11-05T15:52:14.949Z,11.99
2022-11-05T15:54:42.335Z,12.07
2022-11-05T15:57:22.545Z,11.87
2022-11-05T15:59:49.881Z,11.59
